Terminal Aerodrome Forecast
Issued by NWS

Home | Current Version | Previous Version | Text Only | Print | Product List | Glossary On
Versions: 1 2 3 4 5 6 7 8 9 10 11 12 13 14 15 16 17 18 19 20 21 22 23 24 25 26 27 28 29 30 31 32 33 34 35 36 37 38 39 40 41 42 43 44 45 46 47 48 49 50
000
FTAK31 PANC 250325 AAD
TAFACD
TAF AMD
PACD 250325Z 2503/2524 24016KT P6SM VCSH SCT015 BKN035
      TEMPO 2503/2505 2SM -SHSN BKN010
     FM251000 18012KT P6SM VCSH SCT015 BKN025
     FM251300 16016G24KT P6SM -RA FEW003 SCT007 OVC015
     FM251800 18018G26KT 3SM -RA BR BKN003 OVC007
     FM252100 23022G30KT 4SM -RA BR BKN003 OVC007=

USA.gov is the U.S. government's official web portal to all federal, state and local government web resources and services.